Time;durP1;ratioP1;P1;durP2;ratioP2;P2;SDS_P1;SDS_P2;PMS_P1;PMS_P2;Temp;Humidity;BMP_temperature;BMP_pressure;BME280_temperature;BME280_humidity;BME280_pressure;Samples;Min_cycle;Max_cycle;Signal;HPM_P1;HPM_P2
2022/12/09 00:00:21;;;;;;;14.23;11.67;;;;;;;;;;5071399;28;20764;-47
2022/12/09 00:02:47;;;;;;;15.27;11.23;;;;;;;;;;5071381;28;20492;-47
2022/12/09 00:05:13;;;;;;;12.93;10.07;;;;;;;;;;5071442;28;20430;-46
2022/12/09 00:07:39;;;;;;;11.83;10.07;;;;;;;;;;5071133;28;20479;-46
2022/12/09 00:10:05;;;;;;;12.33;10.33;;;;;;;;;;5071322;28;20975;-48
2022/12/09 00:12:33;;;;;;;17.30;11.87;;;;;;;;;;5073940;28;20525;-47
2022/12/09 00:14:59;;;;;;;16.60;12.87;;;;;;;;;;5075256;28;20549;-47
2022/12/09 00:17:25;;;;;;;15.87;11.63;;;;;;;;;;5075196;28;20951;-47
2022/12/09 00:19:51;;;;;;;15.30;12.30;;;;;;;;;;5075144;28;20928;-47
2022/12/09 00:22:17;;;;;;;16.50;11.07;;;;;;;;;;5075028;28;20487;-47
2022/12/09 00:24:43;;;;;;;14.10;11.40;;;;;;;;;;5075375;28;20479;-47
2022/12/09 00:27:09;;;;;;;12.37;10.70;;;;;;;;;;5074969;28;20450;-47
2022/12/09 00:29:36;;;;;;;15.37;11.53;;;;;;;;;;5075196;28;20206;-47
2022/12/09 00:32:02;;;;;;;13.03;11.40;;;;;;;;;;5074621;28;20945;-46
2022/12/09 00:34:28;;;;;;;11.73;9.97;;;;;;;;;;5075141;28;20513;-47
2022/12/09 00:36:54;;;;;;;12.97;10.50;;;;;;;;;;5074618;28;20482;-47
2022/12/09 00:39:20;;;;;;;11.83;9.97;;;;;;;;;;5074810;28;20495;-47
2022/12/09 00:41:48;;;;;;;12.33;10.40;;;;;;;;;;5074823;28;20771;-47
2022/12/09 00:44:14;;;;;;;13.03;9.63;;;;;;;;;;5074330;28;20458;-47
2022/12/09 00:46:42;;;;;;;11.90;9.73;;;;;;;;;;5074802;28;20484;-47
2022/12/09 00:49:08;;;;;;;12.40;10.00;;;;;;;;;;5074580;28;20892;-47
2022/12/09 00:51:34;;;;;;;14.00;9.43;;;;;;;;;;5074469;28;21044;-47
2022/12/09 00:54:00;;;;;;;10.70;9.50;;;;;;;;;;5074603;28;20438;-47
2022/12/09 00:56:27;;;;;;;12.17;10.00;;;;;;;;;;5074371;28;20433;-47
2022/12/09 00:58:53;;;;;;;12.13;9.57;;;;;;;;;;5074402;28;20485;-48
2022/12/09 01:01:19;;;;;;;13.00;10.47;;;;;;;;;;5074437;28;20449;-48
2022/12/09 01:03:46;;;;;;;11.20;9.83;;;;;;;;;;5074663;28;20430;-47
2022/12/09 01:06:13;;;;;;;11.80;9.90;;;;;;;;;;5074180;28;20430;-47
2022/12/09 01:08:39;;;;;;;12.73;10.00;;;;;;;;;;5073989;28;20560;-46
2022/12/09 01:11:09;;;;;;;12.27;9.80;;;;;;;;;;5074031;28;20986;-46
2022/12/09 01:13:35;;;;;;;12.63;10.37;;;;;;;;;;5074254;28;20430;-46
2022/12/09 01:16:01;;;;;;;14.03;10.20;;;;;;;;;;5070594;28;20437;-47
2022/12/09 01:18:27;;;;;;;13.27;9.90;;;;;;;;;;5074124;28;20473;-47
2022/12/09 01:20:57;;;;;;;12.07;10.20;;;;;;;;;;5074086;28;20430;-47
2022/12/09 01:23:23;;;;;;;11.97;10.57;;;;;;;;;;5073546;28;20457;-46
2022/12/09 01:25:49;;;;;;;12.57;10.17;;;;;;;;;;5074100;28;20440;-47
2022/12/09 01:28:15;;;;;;;13.20;11.17;;;;;;;;;;5074047;28;20770;-46
2022/12/09 01:30:41;;;;;;;12.90;11.00;;;;;;;;;;5074148;28;20218;-46
2022/12/09 01:33:07;;;;;;;12.13;10.40;;;;;;;;;;5073897;28;20956;-47
2022/12/09 01:35:33;;;;;;;14.10;10.97;;;;;;;;;;5074000;28;20434;-47
2022/12/09 01:38:00;;;;;;;9.57;8.43;;;;;;;;;;5073571;28;20477;-48
2022/12/09 01:40:26;;;;;;;13.13;9.83;;;;;;;;;;5073731;28;20495;-46
2022/12/09 01:42:52;;;;;;;12.53;9.60;;;;;;;;;;5073814;28;20429;-46
2022/12/09 01:45:42;;;;;;;12.20;9.10;;;;;;;;;;5073573;28;20499;-47
2022/12/09 01:48:13;;;;;;;12.00;10.23;;;;;;;;;;5058162;28;20437;-47
2022/12/09 01:50:41;;;;;;;12.30;9.87;;;;;;;;;;5073517;28;20477;-47
2022/12/09 01:53:09;;;;;;;11.87;9.60;;;;;;;;;;5073339;28;20550;-47
2022/12/09 01:55:35;;;;;;;11.50;9.57;;;;;;;;;;5073553;28;20449;-47
2022/12/09 01:58:02;;;;;;;13.83;10.43;;;;;;;;;;5073267;28;20465;-46
2022/12/09 02:00:28;;;;;;;11.20;9.10;;;;;;;;;;5073224;28;20438;-46
2022/12/09 02:02:55;;;;;;;12.83;10.27;;;;;;;;;;5073298;28;20453;-47
2022/12/09 02:05:23;;;;;;;12.07;9.50;;;;;;;;;;5073062;28;20437;-47
2022/12/09 02:07:49;;;;;;;13.73;10.60;;;;;;;;;;5073086;28;20437;-47
2022/12/09 02:10:17;;;;;;;13.97;11.47;;;;;;;;;;5073000;28;20823;-47
2022/12/09 02:12:48;;;;;;;18.17;11.60;;;;;;;;;;5073157;28;20540;-47
2022/12/09 02:15:17;;;;;;;18.60;12.80;;;;;;;;;;5073042;28;20449;-47
2022/12/09 02:17:45;;;;;;;17.17;12.13;;;;;;;;;;5072904;28;20852;-47
2022/12/09 02:20:16;;;;;;;19.03;12.87;;;;;;;;;;5072917;28;20434;-47
2022/12/09 02:22:45;;;;;;;18.27;11.63;;;;;;;;;;5072745;28;20499;-47
2022/12/09 02:25:14;;;;;;;16.07;12.57;;;;;;;;;;5072764;28;20507;-47
2022/12/09 02:27:44;;;;;;;15.83;12.03;;;;;;;;;;5072781;28;20450;-47
2022/12/09 02:30:14;;;;;;;15.43;12.17;;;;;;;;;;5072569;28;20831;-47
2022/12/09 02:32:47;;;;;;;15.67;11.53;;;;;;;;;;5072934;28;20434;-47
2022/12/09 02:35:18;;;;;;;15.90;12.40;;;;;;;;;;5071792;28;20525;-47
2022/12/09 02:37:48;;;;;;;15.47;12.17;;;;;;;;;;5072666;28;20465;-47
2022/12/09 02:40:16;;;;;;;14.30;10.83;;;;;;;;;;5072447;28;20856;-47
2022/12/09 02:42:45;;;;;;;13.60;11.27;;;;;;;;;;5072297;28;20929;-47
2022/12/09 02:45:11;;;;;;;14.00;11.20;;;;;;;;;;5072609;28;20516;-48
2022/12/09 02:47:40;;;;;;;13.43;11.23;;;;;;;;;;5072488;28;20430;-47
2022/12/09 02:50:08;;;;;;;12.97;11.10;;;;;;;;;;5072109;28;20430;-47
2022/12/09 02:52:36;;;;;;;13.20;11.13;;;;;;;;;;5072359;28;20459;-47
2022/12/09 02:55:04;;;;;;;15.13;11.53;;;;;;;;;;5072276;28;20553;-47
2022/12/09 02:57:31;;;;;;;14.30;10.63;;;;;;;;;;5072264;28;20861;-47
2022/12/09 02:59:57;;;;;;;16.33;11.73;;;;;;;;;;5072253;28;20491;-47
2022/12/09 03:02:26;;;;;;;14.73;11.93;;;;;;;;;;5072009;28;20503;-47
2022/12/09 03:11:02;;;;;;;12.23;9.90;;;;;;;;;;5071769;28;20389;-47
2022/12/09 03:13:35;;;;;;;14.20;11.13;;;;;;;;;;5072151;28;20438;-47
2022/12/09 03:16:07;;;;;;;16.20;11.40;;;;;;;;;;5071879;28;20422;-48
2022/12/09 03:18:33;;;;;;;15.13;11.60;;;;;;;;;;5072091;28;20485;-47
2022/12/09 03:21:00;;;;;;;14.20;11.57;;;;;;;;;;5071760;28;20442;-47
2022/12/09 03:23:27;;;;;;;13.57;11.13;;;;;;;;;;5071888;28;20481;-47
2022/12/09 03:25:54;;;;;;;12.50;10.77;;;;;;;;;;5071703;28;20519;-47
2022/12/09 03:28:23;;;;;;;13.83;10.33;;;;;;;;;;5071818;28;20525;-47
2022/12/09 03:30:52;;;;;;;13.80;10.60;;;;;;;;;;5071918;28;20839;-46
2022/12/09 03:33:20;;;;;;;14.13;10.77;;;;;;;;;;5071847;28;20437;-46
2022/12/09 03:35:49;;;;;;;14.30;11.37;;;;;;;;;;5071598;28;20433;-46
2022/12/09 03:38:16;;;;;;;14.10;10.30;;;;;;;;;;5071740;28;20473;-46
2022/12/09 03:40:42;;;;;;;13.83;10.80;;;;;;;;;;5071541;28;20441;-47
2022/12/09 03:43:12;;;;;;;13.07;11.23;;;;;;;;;;5071698;28;20457;-46
2022/12/09 03:45:40;;;;;;;15.37;12.13;;;;;;;;;;5071602;28;20426;-46
2022/12/09 03:48:06;;;;;;;14.20;10.50;;;;;;;;;;5071813;28;20437;-46
2022/12/09 03:50:35;;;;;;;13.93;9.97;;;;;;;;;;5071561;28;20480;-46
2022/12/09 03:53:04;;;;;;;13.97;10.70;;;;;;;;;;5071569;28;20429;-47
2022/12/09 03:55:34;;;;;;;13.47;10.50;;;;;;;;;;5071614;28;20844;-46
2022/12/09 03:58:02;;;;;;;14.77;10.60;;;;;;;;;;5070172;28;20545;-46
2022/12/09 04:00:28;;;;;;;15.13;10.90;;;;;;;;;;5071618;28;20520;-47
2022/12/09 04:02:56;;;;;;;14.47;11.30;;;;;;;;;;5071410;28;20837;-47
2022/12/09 04:05:22;;;;;;;14.00;11.53;;;;;;;;;;5071395;28;21011;-46
2022/12/09 04:07:48;;;;;;;13.80;10.87;;;;;;;;;;5071216;28;20545;-47
2022/12/09 04:10:14;;;;;;;13.10;11.00;;;;;;;;;;5071427;28;20536;-47
2022/12/09 04:12:40;;;;;;;13.53;10.93;;;;;;;;;;5071334;28;20516;-47
2022/12/09 04:15:08;;;;;;;14.27;10.80;;;;;;;;;;5070960;28;20437;-47
2022/12/09 04:17:34;;;;;;;12.70;10.43;;;;;;;;;;5071092;28;20469;-47
2022/12/09 04:20:02;;;;;;;13.07;10.63;;;;;;;;;;5071227;28;20434;-47
2022/12/09 04:22:28;;;;;;;16.03;11.33;;;;;;;;;;5071216;28;20438;-47
2022/12/09 04:24:54;;;;;;;13.53;10.77;;;;;;;;;;5071123;28;20854;-47
2022/12/09 04:27:20;;;;;;;13.57;10.73;;;;;;;;;;5071264;28;20430;-47
2022/12/09 04:29:46;;;;;;;12.83;11.10;;;;;;;;;;5071110;28;20433;-47
2022/12/09 04:32:13;;;;;;;14.20;11.33;;;;;;;;;;5071250;28;20437;-47
2022/12/09 04:34:39;;;;;;;13.17;10.70;;;;;;;;;;5071117;28;20448;-48
2022/12/09 04:37:06;;;;;;;12.83;10.70;;;;;;;;;;5070907;28;20434;-47
2022/12/09 04:39:32;;;;;;;13.97;10.30;;;;;;;;;;5071044;28;20438;-47
2022/12/09 04:41:58;;;;;;;14.17;11.57;;;;;;;;;;5071106;28;20458;-47
2022/12/09 04:44:24;;;;;;;14.03;10.93;;;;;;;;;;5071076;28;20487;-47
2022/12/09 04:46:50;;;;;;;15.37;12.23;;;;;;;;;;5070932;28;20446;-47
2022/12/09 04:49:16;;;;;;;17.30;11.97;;;;;;;;;;5071065;28;20430;-47
2022/12/09 04:51:42;;;;;;;13.70;11.03;;;;;;;;;;5070824;28;20465;-46
2022/12/09 04:54:11;;;;;;;13.97;10.97;;;;;;;;;;5071068;28;20454;-47
2022/12/09 04:56:37;;;;;;;14.37;11.30;;;;;;;;;;5070946;28;20548;-47
2022/12/09 04:59:04;;;;;;;16.53;10.97;;;;;;;;;;5073938;28;20477;-47
2022/12/09 05:01:30;;;;;;;14.60;10.73;;;;;;;;;;5074506;28;20434;-47
2022/12/09 05:03:56;;;;;;;12.50;10.07;;;;;;;;;;5074327;28;20451;-47
2022/12/09 05:06:22;;;;;;;15.07;11.27;;;;;;;;;;5074629;28;20426;-47
2022/12/09 05:08:48;;;;;;;15.10;11.10;;;;;;;;;;5074047;28;20948;-47
2022/12/09 05:11:17;;;;;;;14.53;11.07;;;;;;;;;;5074406;28;20473;-47
2022/12/09 05:13:43;;;;;;;13.93;10.90;;;;;;;;;;5074402;28;20450;-47
2022/12/09 05:16:10;;;;;;;14.67;10.97;;;;;;;;;;5074249;28;20529;-47
2022/12/09 05:18:36;;;;;;;13.07;9.77;;;;;;;;;;5074091;28;20473;-47
2022/12/09 05:21:04;;;;;;;13.47;10.70;;;;;;;;;;5074172;28;20437;-47
2022/12/09 05:23:30;;;;;;;14.90;10.67;;;;;;;;;;5074108;28;20513;-47
2022/12/09 05:25:56;;;;;;;14.13;10.87;;;;;;;;;;5073870;28;21104;-47
2022/12/09 05:28:23;;;;;;;12.37;10.30;;;;;;;;;;5074050;28;20451;-47
2022/12/09 05:30:49;;;;;;;12.77;10.20;;;;;;;;;;5073830;28;20517;-46
2022/12/09 05:33:15;;;;;;;13.90;10.83;;;;;;;;;;5073868;28;20509;-47
2022/12/09 05:35:43;;;;;;;15.67;10.50;;;;;;;;;;5073751;28;20458;-47
2022/12/09 05:38:09;;;;;;;13.20;10.60;;;;;;;;;;5073757;28;20473;-47
2022/12/09 05:40:36;;;;;;;13.37;10.00;;;;;;;;;;5073730;28;20453;-47
2022/12/09 05:43:02;;;;;;;11.90;10.10;;;;;;;;;;5072430;28;20448;-47
2022/12/09 05:45:29;;;;;;;13.33;10.53;;;;;;;;;;5073670;28;20525;-47
2022/12/09 05:47:55;;;;;;;13.20;10.63;;;;;;;;;;5073379;28;20441;-47
2022/12/09 05:50:21;;;;;;;13.00;10.60;;;;;;;;;;5073533;28;20545;-47
2022/12/09 05:52:47;;;;;;;15.07;12.00;;;;;;;;;;5073474;28;20433;-47
2022/12/09 05:55:13;;;;;;;15.77;11.90;;;;;;;;;;5073353;28;20924;-47
2022/12/09 05:57:39;;;;;;;16.90;13.60;;;;;;;;;;5073452;28;20478;-47
2022/12/09 06:00:06;;;;;;;16.33;12.17;;;;;;;;;;5073415;28;20507;-47
2022/12/09 06:02:33;;;;;;;13.27;11.50;;;;;;;;;;5073357;28;20537;-47
2022/12/09 06:04:59;;;;;;;14.83;11.73;;;;;;;;;;5073197;28;20529;-47
2022/12/09 06:07:25;;;;;;;14.77;11.13;;;;;;;;;;5073220;28;20504;-47
2022/12/09 06:09:51;;;;;;;16.37;11.90;;;;;;;;;;5071886;28;20791;-47
2022/12/09 06:12:17;;;;;;;14.20;10.87;;;;;;;;;;5072983;28;20442;-47
2022/12/09 06:14:43;;;;;;;16.87;12.30;;;;;;;;;;5072916;28;20562;-47
2022/12/09 06:17:10;;;;;;;18.07;14.37;;;;;;;;;;5072804;28;20434;-47
2022/12/09 06:19:37;;;;;;;17.20;13.30;;;;;;;;;;5072718;28;20924;-46
2022/12/09 06:22:03;;;;;;;18.57;12.43;;;;;;;;;;5072983;28;20442;-46
2022/12/09 06:24:29;;;;;;;20.40;13.20;;;;;;;;;;5072640;28;20766;-45
2022/12/09 06:26:55;;;;;;;16.00;12.30;;;;;;;;;;5072608;28;20429;-46
2022/12/09 06:29:21;;;;;;;15.83;12.03;;;;;;;;;;5072821;28;20437;-47
2022/12/09 06:31:47;;;;;;;15.97;12.50;;;;;;;;;;5072592;28;20430;-46
2022/12/09 06:34:13;;;;;;;16.90;12.80;;;;;;;;;;5072588;28;20440;-47
2022/12/09 06:36:41;;;;;;;17.40;13.17;;;;;;;;;;5072463;28;20513;-46
2022/12/09 06:39:07;;;;;;;17.43;13.07;;;;;;;;;;5072457;28;20480;-46
2022/12/09 06:41:33;;;;;;;17.03;13.83;;;;;;;;;;5072477;28;20785;-47
2022/12/09 06:43:59;;;;;;;15.97;12.87;;;;;;;;;;5072292;28;20776;-46
2022/12/09 06:46:26;;;;;;;15.97;12.70;;;;;;;;;;5072375;28;20475;-47
2022/12/09 06:48:52;;;;;;;18.47;13.63;;;;;;;;;;5072239;28;20781;-46
2022/12/09 06:51:19;;;;;;;20.70;15.77;;;;;;;;;;5072126;28;20728;-46
2022/12/09 06:53:46;;;;;;;20.10;15.40;;;;;;;;;;5072198;28;20476;-46
2022/12/09 06:56:13;;;;;;;19.47;15.20;;;;;;;;;;5072120;28;20442;-46
2022/12/09 06:58:39;;;;;;;27.43;20.60;;;;;;;;;;5072010;28;20490;-46
2022/12/09 07:01:07;;;;;;;27.33;20.83;;;;;;;;;;5072171;28;20437;-46
2022/12/09 07:03:33;;;;;;;26.57;21.97;;;;;;;;;;5072301;28;20540;-46
2022/12/09 07:05:59;;;;;;;20.50;17.50;;;;;;;;;;5071974;28;20438;-46
2022/12/09 07:08:26;;;;;;;19.40;15.07;;;;;;;;;;5072182;28;20454;-47
2022/12/09 07:10:53;;;;;;;24.97;16.03;;;;;;;;;;5072038;28;20935;-46
2022/12/09 07:13:19;;;;;;;21.27;14.77;;;;;;;;;;5071824;28;20937;-46
2022/12/09 07:15:45;;;;;;;18.30;13.90;;;;;;;;;;5071773;28;20854;-46
2022/12/09 07:18:11;;;;;;;19.47;14.23;;;;;;;;;;5071839;28;20500;-46
2022/12/09 07:20:37;;;;;;;20.50;13.83;;;;;;;;;;5071246;28;20642;-46
2022/12/09 07:23:03;;;;;;;21.43;15.17;;;;;;;;;;5071579;28;20476;-46
2022/12/09 07:25:29;;;;;;;19.47;15.10;;;;;;;;;;5071750;28;20586;-46
2022/12/09 07:27:56;;;;;;;19.90;14.90;;;;;;;;;;5071712;28;20821;-46
2022/12/09 07:30:22;;;;;;;21.13;14.13;;;;;;;;;;5071757;28;20441;-46
2022/12/09 07:32:48;;;;;;;20.57;13.73;;;;;;;;;;5071592;28;20529;-46
2022/12/09 07:35:14;;;;;;;19.27;14.50;;;;;;;;;;5071484;28;20191;-49
2022/12/09 07:37:40;;;;;;;18.43;14.53;;;;;;;;;;5071546;28;20844;-46
2022/12/09 07:40:07;;;;;;;20.20;13.43;;;;;;;;;;5071556;28;20430;-45
2022/12/09 07:42:33;;;;;;;17.53;13.93;;;;;;;;;;5071589;28;20450;-45
2022/12/09 07:45:00;;;;;;;19.47;13.73;;;;;;;;;;5071535;28;20511;-45
2022/12/09 07:47:27;;;;;;;20.10;14.43;;;;;;;;;;5071626;28;20484;-45
2022/12/09 07:49:53;;;;;;;23.03;16.37;;;;;;;;;;5071446;28;20533;-45
2022/12/09 07:52:19;;;;;;;23.17;16.40;;;;;;;;;;5071219;28;20477;-46
2022/12/09 07:54:45;;;;;;;30.27;19.43;;;;;;;;;;5071479;28;20426;-45
2022/12/09 07:57:11;;;;;;;22.10;16.33;;;;;;;;;;5071705;28;20437;-45
2022/12/09 07:59:37;;;;;;;22.37;16.10;;;;;;;;;;5071636;28;20473;-44
2022/12/09 08:02:04;;;;;;;20.17;14.37;;;;;;;;;;5071476;28;20437;-45
2022/12/09 08:04:30;;;;;;;19.57;14.87;;;;;;;;;;5071546;28;20453;-45
2022/12/09 08:06:56;;;;;;;21.10;15.93;;;;;;;;;;5071308;28;20808;-45
2022/12/09 08:09:22;;;;;;;20.07;16.00;;;;;;;;;;5071522;28;20552;-45
2022/12/09 08:11:48;;;;;;;19.43;14.40;;;;;;;;;;5071184;28;20924;-45
2022/12/09 08:14:14;;;;;;;17.80;13.20;;;;;;;;;;5071358;28;20437;-45
2022/12/09 08:16:41;;;;;;;18.67;12.97;;;;;;;;;;5071287;28;20442;-45
2022/12/09 08:19:08;;;;;;;17.80;12.83;;;;;;;;;;5071100;28;20507;-45
2022/12/09 08:21:34;;;;;;;18.93;13.93;;;;;;;;;;5070999;28;20526;-45
2022/12/09 08:24:01;;;;;;;18.93;13.60;;;;;;;;;;5071080;28;20529;-46
2022/12/09 08:26:28;;;;;;;17.70;13.63;;;;;;;;;;5071168;28;20907;-45
2022/12/09 08:28:54;;;;;;;20.23;15.10;;;;;;;;;;5071050;28;20434;-46
2022/12/09 08:31:22;;;;;;;18.20;13.60;;;;;;;;;;5071446;28;20669;-46
2022/12/09 08:33:48;;;;;;;19.47;14.00;;;;;;;;;;5073772;28;20438;-46
2022/12/09 08:36:17;;;;;;;18.67;13.83;;;;;;;;;;5074746;28;20802;-45
2022/12/09 08:38:43;;;;;;;17.30;12.97;;;;;;;;;;5074774;28;20516;-45
2022/12/09 08:41:11;;;;;;;18.20;13.13;;;;;;;;;;5074679;28;20434;-45
2022/12/09 08:43:37;;;;;;;20.70;14.03;;;;;;;;;;5074697;28;20941;-45
2022/12/09 08:46:03;;;;;;;21.13;15.57;;;;;;;;;;5074837;28;20430;-45
2022/12/09 08:48:30;;;;;;;20.37;14.93;;;;;;;;;;5074794;28;20436;-46
2022/12/09 08:50:56;;;;;;;17.80;13.23;;;;;;;;;;5074367;28;20535;-45
2022/12/09 08:53:23;;;;;;;18.13;13.13;;;;;;;;;;5074565;28;20546;-45
2022/12/09 08:55:49;;;;;;;16.63;13.00;;;;;;;;;;5074835;28;20477;-45
2022/12/09 08:58:15;;;;;;;14.53;12.70;;;;;;;;;;5074417;28;21061;-46
2022/12/09 09:00:41;;;;;;;17.17;12.53;;;;;;;;;;5074478;28;20206;-46
2022/12/09 09:03:07;;;;;;;15.73;13.13;;;;;;;;;;5074478;28;20206;-46
2022/12/09 09:05:33;;;;;;;15.77;12.23;;;;;;;;;;5074366;28;20552;-46
2022/12/09 09:07:59;;;;;;;18.57;13.00;;;;;;;;;;5074080;28;20207;-46
2022/12/09 09:10:28;;;;;;;15.00;12.83;;;;;;;;;;5074340;28;20199;-46
2022/12/09 09:12:54;;;;;;;14.63;11.80;;;;;;;;;;5074240;28;20199;-46
2022/12/09 09:15:20;;;;;;;13.43;11.73;;;;;;;;;;5074357;28;20195;-46
2022/12/09 09:17:46;;;;;;;14.03;11.70;;;;;;;;;;5073934;28;20318;-47
2022/12/09 09:20:12;;;;;;;15.80;11.97;;;;;;;;;;5074070;28;20638;-47
2022/12/09 09:22:38;;;;;;;14.33;11.83;;;;;;;;;;5074201;28;20207;-46
2022/12/09 09:25:05;;;;;;;12.83;11.53;;;;;;;;;;5074412;28;20195;-46
2022/12/09 09:27:33;;;;;;;15.17;11.80;;;;;;;;;;5074121;28;20553;-45
2022/12/09 09:29:59;;;;;;;13.73;11.37;;;;;;;;;;5071859;28;20282;-46
2022/12/09 09:32:25;;;;;;;16.00;11.83;;;;;;;;;;5073783;28;20278;-46
2022/12/09 09:34:51;;;;;;;14.93;11.70;;;;;;;;;;5073681;28;20215;-46
2022/12/09 09:37:17;;;;;;;13.03;11.40;;;;;;;;;;5073745;28;20195;-46
2022/12/09 09:39:43;;;;;;;13.73;11.87;;;;;;;;;;5073532;28;20219;-45
2022/12/09 09:42:14;;;;;;;13.37;11.03;;;;;;;;;;5073436;28;20200;-46
2022/12/09 09:44:43;;;;;;;15.27;11.40;;;;;;;;;;5073212;28;20210;-47
2022/12/09 09:47:13;;;;;;;13.60;11.87;;;;;;;;;;5073379;28;20210;-46
2022/12/09 09:49:43;;;;;;;15.23;11.30;;;;;;;;;;5073796;28;20196;-47
2022/12/09 09:52:10;;;;;;;12.33;10.90;;;;;;;;;;5073288;28;20696;-46
2022/12/09 09:54:36;;;;;;;14.27;11.67;;;;;;;;;;5073297;28;20227;-47
2022/12/09 09:57:06;;;;;;;13.77;12.17;;;;;;;;;;5073150;28;20370;-46
2022/12/09 09:59:38;;;;;;;13.80;10.93;;;;;;;;;;5073265;28;20262;-45
2022/12/09 10:02:13;;;;;;;13.53;11.60;;;;;;;;;;5073174;28;20203;-46
2022/12/09 10:04:45;;;;;;;12.07;10.87;;;;;;;;;;5073351;28;20195;-46
2022/12/09 10:07:15;;;;;;;13.90;11.67;;;;;;;;;;5073373;28;20195;-46
2022/12/09 10:09:43;;;;;;;12.97;11.57;;;;;;;;;;5073539;28;20242;-46
2022/12/09 10:12:17;;;;;;;13.00;11.53;;;;;;;;;;5072941;28;20218;-46
2022/12/09 10:14:47;;;;;;;13.43;10.83;;;;;;;;;;5072817;28;20200;-46
2022/12/09 10:17:20;;;;;;;13.67;11.93;;;;;;;;;;5072721;28;20203;-47
2022/12/09 10:19:48;;;;;;;14.50;12.07;;;;;;;;;;5072598;28;20247;-46
2022/12/09 10:22:15;;;;;;;13.50;11.67;;;;;;;;;;5072984;28;20207;-46
2022/12/09 10:24:45;;;;;;;14.97;12.57;;;;;;;;;;5072798;28;20245;-46
2022/12/09 10:27:14;;;;;;;14.27;11.67;;;;;;;;;;5072704;28;20276;-46
2022/12/09 10:29:45;;;;;;;13.17;11.70;;;;;;;;;;5072823;28;20196;-46
2022/12/09 10:32:13;;;;;;;12.60;11.30;;;;;;;;;;5072710;28;20275;-46
2022/12/09 10:34:40;;;;;;;14.47;11.17;;;;;;;;;;5072571;28;20677;-46
2022/12/09 10:37:10;;;;;;;15.20;11.47;;;;;;;;;;5072406;28;20294;-47
2022/12/09 10:39:36;;;;;;;13.73;11.90;;;;;;;;;;5072453;28;20231;-46
2022/12/09 10:44:47;;;;;;;16.10;12.13;;;;;;;;;;5072376;28;20558;-47
2022/12/09 10:47:21;;;;;;;14.87;12.83;;;;;;;;;;5072303;28;20800;-47
2022/12/09 10:49:50;;;;;;;14.97;13.23;;;;;;;;;;5072004;28;20649;-46
2022/12/09 10:52:20;;;;;;;16.07;13.77;;;;;;;;;;5072219;28;20231;-47
2022/12/09 10:54:47;;;;;;;15.43;12.90;;;;;;;;;;5071741;28;20195;-45
2022/12/09 10:57:23;;;;;;;14.27;12.77;;;;;;;;;;5071811;28;20718;-46
2022/12/09 10:59:57;;;;;;;14.77;12.67;;;;;;;;;;5071936;28;20235;-45
2022/12/09 11:02:23;;;;;;;12.60;11.30;;;;;;;;;;5072008;28;20200;-45
2022/12/09 11:04:50;;;;;;;14.20;11.47;;;;;;;;;;5071924;28;20200;-46
2022/12/09 11:07:17;;;;;;;15.03;12.07;;;;;;;;;;5072053;28;20294;-45
2022/12/09 11:09:44;;;;;;;15.47;11.27;;;;;;;;;;5071646;28;20732;-45
2022/12/09 11:12:16;;;;;;;14.90;11.90;;;;;;;;;;5071847;28;20232;-45
2022/12/09 11:14:48;;;;;;;13.57;12.17;;;;;;;;;;5071853;28;20199;-45
2022/12/09 11:17:15;;;;;;;14.63;12.13;;;;;;;;;;5071923;28;20204;-45
2022/12/09 11:19:42;;;;;;;16.50;12.37;;;;;;;;;;5071548;28;20223;-45
2022/12/09 11:22:21;;;;;;;13.83;11.67;;;;;;;;;;5071716;28;20218;-45
2022/12/09 11:24:47;;;;;;;14.33;11.60;;;;;;;;;;5071911;28;20208;-45
2022/12/09 11:27:34;;;;;;;16.20;12.53;;;;;;;;;;5071679;28;20207;-45
2022/12/09 11:30:07;;;;;;;15.33;13.17;;;;;;;;;;5066778;28;20298;-45
2022/12/09 11:32:35;;;;;;;16.63;13.63;;;;;;;;;;5071612;28;20203;-45
2022/12/09 11:35:01;;;;;;;16.47;13.17;;;;;;;;;;5071603;28;20231;-45
2022/12/09 11:37:30;;;;;;;18.53;14.47;;;;;;;;;;5071597;28;20273;-45
2022/12/09 11:39:56;;;;;;;15.73;12.67;;;;;;;;;;5071430;28;20310;-45
2022/12/09 11:42:23;;;;;;;16.23;13.70;;;;;;;;;;5071912;28;20245;-46
2022/12/09 11:44:55;;;;;;;19.37;15.20;;;;;;;;;;5071518;28;20204;-45
2022/12/09 11:47:22;;;;;;;15.73;12.90;;;;;;;;;;5071405;28;20575;-47
2022/12/09 11:49:49;;;;;;;16.63;13.13;;;;;;;;;;5071556;28;20225;-45
2022/12/09 11:52:22;;;;;;;18.00;13.87;;;;;;;;;;5071496;28;20240;-46
2022/12/09 11:54:53;;;;;;;16.53;14.23;;;;;;;;;;5071807;28;20217;-45
2022/12/09 11:57:23;;;;;;;18.33;15.03;;;;;;;;;;5071457;28;20438;-44
2022/12/09 11:59:53;;;;;;;20.13;14.83;;;;;;;;;;5071022;28;20477;-45
2022/12/09 12:02:25;;;;;;;17.40;13.90;;;;;;;;;;5071115;28;20465;-44
2022/12/09 12:04:54;;;;;;;16.47;13.90;;;;;;;;;;5071372;28;20452;-44
2022/12/09 12:07:25;;;;;;;19.80;14.67;;;;;;;;;;5073574;28;20470;-44
2022/12/09 12:09:53;;;;;;;18.37;15.93;;;;;;;;;;5075159;28;20502;-44
2022/12/09 12:12:23;;;;;;;17.60;14.47;;;;;;;;;;5075216;28;20457;-45
2022/12/09 12:14:49;;;;;;;18.53;14.30;;;;;;;;;;5075160;28;20778;-45
2022/12/09 12:17:16;;;;;;;23.83;15.60;;;;;;;;;;5075300;28;20426;-44
2022/12/09 12:19:43;;;;;;;20.63;15.97;;;;;;;;;;5075012;28;20477;-44
2022/12/09 12:22:34;;;;;;;21.07;15.70;;;;;;;;;;5074649;28;20998;-44
2022/12/09 12:25:15;;;;;;;20.23;16.77;;;;;;;;;;5074883;28;20920;-44
2022/12/09 12:27:47;;;;;;;18.90;15.20;;;;;;;;;;5075018;28;20437;-45
2022/12/09 12:30:14;;;;;;;20.70;15.30;;;;;;;;;;5075204;28;20485;-44
2022/12/09 12:32:45;;;;;;;20.60;16.40;;;;;;;;;;5075416;28;20927;-45
2022/12/09 12:35:19;;;;;;;20.33;16.80;;;;;;;;;;5074748;28;20438;-44
2022/12/09 12:37:50;;;;;;;21.67;16.87;;;;;;;;;;5075132;28;20486;-44
2022/12/09 12:40:23;;;;;;;20.73;14.70;;;;;;;;;;5075320;28;20448;-46
2022/12/09 12:48:36;;;;;;;22.30;16.50;;;;;;;;;;5074930;28;20792;-45
2022/12/09 12:51:07;;;;;;;18.83;15.27;;;;;;;;;;5074379;28;20496;-45
2022/12/09 12:53:36;;;;;;;18.33;15.33;;;;;;;;;;5074763;28;20441;-45
2022/12/09 12:56:06;;;;;;;21.50;15.70;;;;;;;;;;5074565;28;21073;-46
2022/12/09 12:58:37;;;;;;;21.07;14.87;;;;;;;;;;5074735;28;20509;-47
2022/12/09 13:01:07;;;;;;;18.00;14.77;;;;;;;;;;5074587;28;20446;-45
2022/12/09 13:03:35;;;;;;;19.57;14.90;;;;;;;;;;5074712;28;20452;-45
2022/12/09 13:06:02;;;;;;;18.63;15.07;;;;;;;;;;5074523;28;20446;-45
2022/12/09 13:08:32;;;;;;;19.90;15.83;;;;;;;;;;5074274;28;20493;-47
2022/12/09 13:11:01;;;;;;;20.63;15.40;;;;;;;;;;5074506;28;20445;-45
2022/12/09 13:13:30;;;;;;;20.73;15.03;;;;;;;;;;5074488;28;20487;-46
2022/12/09 13:16:00;;;;;;;19.93;15.67;;;;;;;;;;5074246;28;20803;-45
2022/12/09 13:18:28;;;;;;;18.10;14.00;;;;;;;;;;5073551;28;20859;-45
2022/12/09 13:20:56;;;;;;;20.17;15.90;;;;;;;;;;5074211;28;20436;-46
2022/12/09 13:23:25;;;;;;;19.37;14.87;;;;;;;;;;5074238;28;20430;-45
2022/12/09 13:25:55;;;;;;;21.80;15.40;;;;;;;;;;5074094;28;20532;-45
2022/12/09 13:28:24;;;;;;;19.20;15.93;;;;;;;;;;5074077;28;20426;-46
2022/12/09 13:30:55;;;;;;;20.00;15.40;;;;;;;;;;5073946;28;20444;-47
2022/12/09 13:33:27;;;;;;;17.53;14.33;;;;;;;;;;5074449;28;20456;-46
2022/12/09 13:35:55;;;;;;;18.63;14.53;;;;;;;;;;5073780;28;20427;-47
2022/12/09 13:38:24;;;;;;;20.43;15.00;;;;;;;;;;5073951;28;20549;-46
2022/12/09 13:40:50;;;;;;;18.57;14.57;;;;;;;;;;5073721;28;20939;-46
2022/12/09 13:43:20;;;;;;;18.93;14.87;;;;;;;;;;5073735;28;20956;-46
2022/12/09 13:45:48;;;;;;;19.07;15.70;;;;;;;;;;5073625;28;20857;-46
2022/12/09 13:48:29;;;;;;;18.63;14.80;;;;;;;;;;5073788;28;20430;-47
2022/12/09 13:50:58;;;;;;;19.53;15.30;;;;;;;;;;5073023;28;20481;-46
2022/12/09 13:53:25;;;;;;;20.27;15.00;;;;;;;;;;5073463;28;20952;-46
2022/12/09 13:55:53;;;;;;;18.73;15.07;;;;;;;;;;5073749;28;20442;-46
2022/12/09 13:58:29;;;;;;;18.27;14.63;;;;;;;;;;5071842;28;20469;-47
2022/12/09 14:00:59;;;;;;;18.97;15.03;;;;;;;;;;5071428;28;20444;-47
2022/12/09 14:03:27;;;;;;;20.83;15.30;;;;;;;;;;5072257;28;20472;-46
2022/12/09 14:05:54;;;;;;;20.10;14.87;;;;;;;;;;5072955;28;20479;-46
2022/12/09 14:08:23;;;;;;;21.33;15.70;;;;;;;;;;5072768;28;20987;-47
2022/12/09 14:10:51;;;;;;;18.53;15.23;;;;;;;;;;5072963;28;20452;-47
2022/12/09 14:13:34;;;;;;;21.30;16.17;;;;;;;;;;5072804;28;20438;-46
2022/12/09 14:16:15;;;;;;;24.33;15.93;;;;;;;;;;5072379;28;20524;-46
2022/12/09 14:18:41;;;;;;;24.53;16.90;;;;;;;;;;5072834;28;20516;-46
2022/12/09 14:21:21;;;;;;;21.83;15.90;;;;;;;;;;5072859;28;20866;-46
2022/12/09 14:24:02;;;;;;;22.93;15.17;;;;;;;;;;5070436;28;20442;-46
2022/12/09 14:26:34;;;;;;;19.60;15.17;;;;;;;;;;5072615;28;20430;-46
2022/12/09 14:29:00;;;;;;;19.20;14.50;;;;;;;;;;5072702;28;20832;-47
2022/12/09 14:31:43;;;;;;;20.07;15.00;;;;;;;;;;5071312;28;20477;-47
2022/12/09 14:34:16;;;;;;;19.43;14.73;;;;;;;;;;5072334;28;20944;-47
2022/12/09 14:36:49;;;;;;;18.33;14.87;;;;;;;;;;5072362;28;20445;-46